createdAt,value
2023-05-01T00:04:05.882Z,12
2023-05-01T00:14:10.528Z,14
2023-05-01T00:24:16.092Z,12
2023-05-01T00:34:23.355Z,13
2023-05-01T00:44:28.341Z,10
2023-05-01T00:54:34.340Z,12
2023-05-01T01:04:40.887Z,13
2023-05-01T01:14:47.636Z,13
2023-05-01T01:24:52.294Z,12
2023-05-01T01:35:00.470Z,11
2023-05-01T01:45:06.957Z,13
2023-05-01T01:55:12.802Z,12
2023-05-01T02:05:19.039Z,12
2023-05-01T02:15:25.080Z,12
2023-05-01T02:25:31.033Z,12
2023-05-01T02:35:36.296Z,12
2023-05-01T02:45:42.518Z,13
2023-05-01T02:55:48.208Z,14
2023-05-01T03:05:55.422Z,13
2023-05-01T03:16:01.331Z,15
2023-05-01T03:26:07.391Z,12
2023-05-01T03:36:14.020Z,13
2023-05-01T03:46:20.730Z,11
2023-05-01T03:56:26.032Z,13
2023-05-01T04:06:32.856Z,11
2023-05-01T04:16:39.456Z,10
2023-05-01T04:26:45.848Z,11
2023-05-01T04:36:52.176Z,11
2023-05-01T04:46:59.267Z,10
2023-05-01T04:57:05.112Z,14
2023-05-01T05:07:10.373Z,12
2023-05-01T05:17:17.311Z,13
2023-05-01T05:27:24.501Z,43
2023-05-01T05:37:31.503Z,19
2023-05-01T05:47:37.035Z,11
2023-05-01T05:57:42.825Z,11
2023-05-01T06:07:49.488Z,9
2023-05-01T06:17:56.783Z,8
2023-05-01T06:28:01.762Z,10
2023-05-01T06:38:10.324Z,12
2023-05-01T06:48:16.095Z,9
2023-05-01T06:58:23.744Z,8
2023-05-01T07:08:42.868Z,8
2023-05-01T07:18:34.841Z,9
2023-05-01T07:28:40.850Z,10
2023-05-01T07:38:45.439Z,10
2023-05-01T07:48:52.445Z,13
2023-05-01T07:58:57.562Z,12
2023-05-01T08:09:02.687Z,10
2023-05-01T08:19:09.129Z,13
2023-05-01T08:29:15.375Z,11
2023-05-01T08:39:21.862Z,12
2023-05-01T08:49:27.664Z,28
2023-05-01T08:59:34.151Z,13
2023-05-01T09:09:38.640Z,15
2023-05-01T09:19:43.983Z,20
2023-05-01T09:29:49.070Z,17
2023-05-01T09:39:55.380Z,18
2023-05-01T09:50:00.427Z,16
2023-05-01T10:00:08.934Z,13
2023-05-01T10:10:15.270Z,15
2023-05-01T10:20:22.269Z,18
2023-05-01T10:30:28.373Z,14
2023-05-01T10:40:34.536Z,20
2023-05-01T10:50:42.137Z,13
2023-05-01T11:00:49.036Z,13
2023-05-01T11:10:55.468Z,11
2023-05-01T11:21:00.821Z,14
2023-05-01T11:31:07.829Z,13
2023-05-01T11:41:14.609Z,14
2023-05-01T11:51:21.377Z,14
2023-05-01T12:01:28.228Z,16
2023-05-01T12:11:34.136Z,14
2023-05-01T12:21:39.718Z,14
2023-05-01T12:31:48.827Z,14
2023-05-01T12:41:56.199Z,12
2023-05-01T12:52:02.863Z,12
2023-05-01T13:02:09.721Z,11
2023-05-01T13:12:15.348Z,12
2023-05-01T13:22:20.414Z,14
2023-05-01T13:32:27.350Z,13
2023-05-01T13:42:34.193Z,14
2023-05-01T13:52:39.767Z,14
2023-05-01T14:02:45.929Z,14
2023-05-01T14:12:53.903Z,13
2023-05-01T14:23:00.155Z,10
2023-05-01T14:33:07.108Z,12
2023-05-01T14:43:13.411Z,12
2023-05-01T14:53:18.739Z,12
2023-05-01T15:03:25.853Z,9
2023-05-01T15:13:31.726Z,12
2023-05-01T15:23:39.647Z,11
2023-05-01T15:33:47.234Z,25
2023-05-01T15:43:54.840Z,8
2023-05-01T15:54:01.198Z,10
2023-05-01T16:04:07.897Z,8
2023-05-01T16:14:12.417Z,11
2023-05-01T16:24:18.644Z,19
2023-05-01T16:34:24.392Z,7
2023-05-01T16:44:30.242Z,11
2023-05-01T16:54:36.020Z,7
2023-05-01T17:04:43.027Z,5
2023-05-01T17:14:47.587Z,4
2023-05-01T17:24:53.802Z,6
2023-05-01T17:34:59.338Z,6
2023-05-01T17:45:06.132Z,6
2023-05-01T17:55:12.586Z,5
2023-05-01T18:05:19.497Z,4
2023-05-01T18:15:23.600Z,4
2023-05-01T18:25:29.785Z,7
2023-05-01T18:35:38.016Z,4
2023-05-01T18:45:43.571Z,6
2023-05-01T18:55:51.722Z,8
2023-05-01T19:06:00.016Z,5
2023-05-01T19:16:05.593Z,3
2023-05-01T19:26:12.406Z,4
2023-05-01T19:36:18.646Z,11
2023-05-01T19:46:24.838Z,3
2023-05-01T19:56:29.701Z,5
2023-05-01T20:06:36.125Z,4
2023-05-01T20:16:42.528Z,2
2023-05-01T20:26:48.644Z,2
2023-05-01T20:36:55.680Z,3
2023-05-01T20:47:00.439Z,2
2023-05-01T20:57:07.025Z,4
2023-05-01T21:07:14.024Z,4
2023-05-01T21:17:20.367Z,3
2023-05-01T21:27:26.608Z,2
2023-05-01T21:37:33.753Z,3
2023-05-01T21:47:41.104Z,3
2023-05-01T21:57:47.989Z,3
2023-05-01T22:07:53.950Z,6
2023-05-01T22:17:59.501Z,2
2023-05-01T22:28:05.897Z,2
2023-05-01T22:38:12.206Z,2
2023-05-01T22:48:18.995Z,4
2023-05-01T22:58:25.140Z,3
2023-05-01T23:08:31.476Z,3
2023-05-01T23:18:37.243Z,4
2023-05-01T23:28:42.479Z,3
2023-05-01T23:38:49.885Z,3
2023-05-01T23:48:54.640Z,4
2023-05-01T23:59:02.051Z,3
